sensor_id;sensor_type;location;lat;lon;timestamp;P1;durP1;ratioP1;P2;durP2;ratioP2
18435;SDS011;9346;52.006;4.720;2023-06-14T00:00:47;2.30;;;2.00;;
18435;SDS011;9346;52.006;4.720;2023-06-14T00:03:15;4.20;;;2.00;;
18435;SDS011;9346;52.006;4.720;2023-06-14T00:05:44;3.07;;;2.23;;
18435;SDS011;9346;52.006;4.720;2023-06-14T00:08:11;3.97;;;2.27;;
18435;SDS011;9346;52.006;4.720;2023-06-14T00:10:38;4.23;;;2.37;;
18435;SDS011;9346;52.006;4.720;2023-06-14T00:13:07;3.70;;;2.80;;
18435;SDS011;9346;52.006;4.720;2023-06-14T00:15:34;2.63;;;2.00;;
18435;SDS011;9346;52.006;4.720;2023-06-14T00:18:01;4.60;;;2.00;;
18435;SDS011;9346;52.006;4.720;2023-06-14T00:20:32;3.23;;;1.90;;
18435;SDS011;9346;52.006;4.720;2023-06-14T00:22:59;6.93;;;2.20;;
18435;SDS011;9346;52.006;4.720;2023-06-14T00:25:26;3.40;;;2.07;;
18435;SDS011;9346;52.006;4.720;2023-06-14T00:27:53;5.50;;;2.47;;
18435;SDS011;9346;52.006;4.720;2023-06-14T00:30:21;2.87;;;2.13;;
18435;SDS011;9346;52.006;4.720;2023-06-14T00:32:48;3.17;;;2.30;;
18435;SDS011;9346;52.006;4.720;2023-06-14T00:35:15;3.67;;;2.33;;
18435;SDS011;9346;52.006;4.720;2023-06-14T00:37:44;3.03;;;2.10;;
18435;SDS011;9346;52.006;4.720;2023-06-14T00:40:14;6.17;;;2.23;;
18435;SDS011;9346;52.006;4.720;2023-06-14T00:42:41;3.37;;;2.10;;
18435;SDS011;9346;52.006;4.720;2023-06-14T00:45:08;4.20;;;2.20;;
18435;SDS011;9346;52.006;4.720;2023-06-14T00:47:37;3.27;;;1.90;;
18435;SDS011;9346;52.006;4.720;2023-06-14T00:50:06;2.90;;;2.03;;
18435;SDS011;9346;52.006;4.720;2023-06-14T00:52:34;3.77;;;2.30;;
18435;SDS011;9346;52.006;4.720;2023-06-14T00:55:03;3.87;;;2.03;;
18435;SDS011;9346;52.006;4.720;2023-06-14T00:57:30;4.37;;;2.00;;
18435;SDS011;9346;52.006;4.720;2023-06-14T00:59:58;2.53;;;1.87;;
18435;SDS011;9346;52.006;4.720;2023-06-14T01:02:24;2.67;;;2.00;;
18435;SDS011;9346;52.006;4.720;2023-06-14T01:04:51;2.00;;;1.80;;
18435;SDS011;9346;52.006;4.720;2023-06-14T01:07:23;2.73;;;1.90;;
18435;SDS011;9346;52.006;4.720;2023-06-14T01:12:51;2.43;;;2.00;;
18435;SDS011;9346;52.006;4.720;2023-06-14T01:15:24;3.03;;;2.23;;
18435;SDS011;9346;52.006;4.720;2023-06-14T01:17:53;4.07;;;2.07;;
18435;SDS011;9346;52.006;4.720;2023-06-14T01:20:22;2.97;;;2.10;;
18435;SDS011;9346;52.006;4.720;2023-06-14T01:22:57;3.17;;;2.23;;
18435;SDS011;9346;52.006;4.720;2023-06-14T01:25:24;3.23;;;2.17;;
18435;SDS011;9346;52.006;4.720;2023-06-14T01:27:52;3.23;;;2.03;;
18435;SDS011;9346;52.006;4.720;2023-06-14T01:30:21;3.93;;;2.30;;
18435;SDS011;9346;52.006;4.720;2023-06-14T01:32:50;3.23;;;2.07;;
18435;SDS011;9346;52.006;4.720;2023-06-14T01:35:18;3.57;;;2.20;;
18435;SDS011;9346;52.006;4.720;2023-06-14T01:37:46;3.53;;;2.00;;
18435;SDS011;9346;52.006;4.720;2023-06-14T01:40:17;2.50;;;1.93;;
18435;SDS011;9346;52.006;4.720;2023-06-14T01:42:45;2.67;;;1.77;;
18435;SDS011;9346;52.006;4.720;2023-06-14T01:45:14;3.57;;;2.40;;
18435;SDS011;9346;52.006;4.720;2023-06-14T01:47:42;1.80;;;1.63;;
18435;SDS011;9346;52.006;4.720;2023-06-14T01:50:10;3.13;;;2.00;;
18435;SDS011;9346;52.006;4.720;2023-06-14T01:52:37;3.00;;;1.97;;
18435;SDS011;9346;52.006;4.720;2023-06-14T01:55:05;5.20;;;1.90;;
18435;SDS011;9346;52.006;4.720;2023-06-14T01:57:36;3.27;;;2.30;;
18435;SDS011;9346;52.006;4.720;2023-06-14T02:00:04;3.97;;;2.20;;
18435;SDS011;9346;52.006;4.720;2023-06-14T02:02:35;2.80;;;2.20;;
18435;SDS011;9346;52.006;4.720;2023-06-14T02:05:02;3.73;;;2.10;;
18435;SDS011;9346;52.006;4.720;2023-06-14T02:07:30;2.20;;;2.00;;
18435;SDS011;9346;52.006;4.720;2023-06-14T02:09:57;3.97;;;1.83;;
18435;SDS011;9346;52.006;4.720;2023-06-14T02:12:24;6.27;;;2.47;;
18435;SDS011;9346;52.006;4.720;2023-06-14T02:14:53;2.40;;;2.17;;
18435;SDS011;9346;52.006;4.720;2023-06-14T02:17:21;3.73;;;2.20;;
18435;SDS011;9346;52.006;4.720;2023-06-14T02:19:48;2.73;;;1.90;;
18435;SDS011;9346;52.006;4.720;2023-06-14T02:22:15;2.10;;;1.80;;
18435;SDS011;9346;52.006;4.720;2023-06-14T02:24:43;2.63;;;2.30;;
18435;SDS011;9346;52.006;4.720;2023-06-14T02:27:10;4.00;;;2.03;;
18435;SDS011;9346;52.006;4.720;2023-06-14T02:29:37;3.80;;;1.80;;
18435;SDS011;9346;52.006;4.720;2023-06-14T02:32:07;2.87;;;2.10;;
18435;SDS011;9346;52.006;4.720;2023-06-14T02:34:34;2.53;;;1.93;;
18435;SDS011;9346;52.006;4.720;2023-06-14T02:37:01;2.40;;;1.80;;
18435;SDS011;9346;52.006;4.720;2023-06-14T02:39:29;3.93;;;1.80;;
18435;SDS011;9346;52.006;4.720;2023-06-14T02:41:56;3.90;;;2.20;;
18435;SDS011;9346;52.006;4.720;2023-06-14T02:44:24;2.40;;;1.77;;
18435;SDS011;9346;52.006;4.720;2023-06-14T02:46:52;2.83;;;2.20;;
18435;SDS011;9346;52.006;4.720;2023-06-14T02:49:22;5.53;;;2.27;;
18435;SDS011;9346;52.006;4.720;2023-06-14T02:51:49;3.60;;;2.50;;
18435;SDS011;9346;52.006;4.720;2023-06-14T02:54:16;3.07;;;2.00;;
18435;SDS011;9346;52.006;4.720;2023-06-14T02:56:43;5.17;;;1.70;;
18435;SDS011;9346;52.006;4.720;2023-06-14T02:59:10;4.23;;;1.90;;
18435;SDS011;9346;52.006;4.720;2023-06-14T03:01:38;3.37;;;2.00;;
18435;SDS011;9346;52.006;4.720;2023-06-14T03:04:06;2.40;;;1.77;;
18435;SDS011;9346;52.006;4.720;2023-06-14T03:06:36;4.13;;;1.73;;
18435;SDS011;9346;52.006;4.720;2023-06-14T03:09:04;3.53;;;1.97;;
18435;SDS011;9346;52.006;4.720;2023-06-14T03:11:31;2.90;;;1.50;;
18435;SDS011;9346;52.006;4.720;2023-06-14T03:13:58;2.07;;;1.70;;
18435;SDS011;9346;52.006;4.720;2023-06-14T03:16:28;4.13;;;2.00;;
18435;SDS011;9346;52.006;4.720;2023-06-14T03:18:56;3.73;;;2.10;;
18435;SDS011;9346;52.006;4.720;2023-06-14T03:21:23;3.07;;;2.07;;
18435;SDS011;9346;52.006;4.720;2023-06-14T03:23:52;3.77;;;2.23;;
18435;SDS011;9346;52.006;4.720;2023-06-14T03:26:19;1.97;;;1.77;;
18435;SDS011;9346;52.006;4.720;2023-06-14T03:28:47;3.03;;;2.07;;
18435;SDS011;9346;52.006;4.720;2023-06-14T03:31:15;2.10;;;1.90;;
18435;SDS011;9346;52.006;4.720;2023-06-14T03:33:42;2.77;;;2.20;;
18435;SDS011;9346;52.006;4.720;2023-06-14T03:36:09;6.07;;;2.30;;
18435;SDS011;9346;52.006;4.720;2023-06-14T03:38:36;9.57;;;2.47;;
18435;SDS011;9346;52.006;4.720;2023-06-14T03:41:04;2.83;;;2.30;;
18435;SDS011;9346;52.006;4.720;2023-06-14T03:43:31;3.90;;;2.57;;
18435;SDS011;9346;52.006;4.720;2023-06-14T03:45:59;5.27;;;3.37;;
18435;SDS011;9346;52.006;4.720;2023-06-14T03:48:26;2.97;;;2.20;;
18435;SDS011;9346;52.006;4.720;2023-06-14T03:50:53;2.70;;;2.10;;
18435;SDS011;9346;52.006;4.720;2023-06-14T03:53:21;2.47;;;2.00;;
18435;SDS011;9346;52.006;4.720;2023-06-14T03:55:48;2.37;;;1.83;;
18435;SDS011;9346;52.006;4.720;2023-06-14T03:58:18;2.40;;;1.90;;
18435;SDS011;9346;52.006;4.720;2023-06-14T04:00:45;2.53;;;2.07;;
18435;SDS011;9346;52.006;4.720;2023-06-14T04:03:12;2.87;;;2.20;;
18435;SDS011;9346;52.006;4.720;2023-06-14T04:05:40;3.27;;;2.10;;
18435;SDS011;9346;52.006;4.720;2023-06-14T04:08:07;4.73;;;2.63;;
18435;SDS011;9346;52.006;4.720;2023-06-14T04:10:35;3.33;;;2.10;;
18435;SDS011;9346;52.006;4.720;2023-06-14T04:13:03;5.33;;;2.43;;
18435;SDS011;9346;52.006;4.720;2023-06-14T04:15:33;2.83;;;2.00;;
18435;SDS011;9346;52.006;4.720;2023-06-14T04:18:00;2.70;;;2.00;;
18435;SDS011;9346;52.006;4.720;2023-06-14T04:20:27;4.33;;;2.30;;
18435;SDS011;9346;52.006;4.720;2023-06-14T04:22:56;2.57;;;1.93;;
18435;SDS011;9346;52.006;4.720;2023-06-14T04:25:26;3.13;;;2.20;;
18435;SDS011;9346;52.006;4.720;2023-06-14T04:27:53;2.33;;;1.93;;
18435;SDS011;9346;52.006;4.720;2023-06-14T04:30:20;4.73;;;2.07;;
18435;SDS011;9346;52.006;4.720;2023-06-14T04:32:53;4.70;;;2.03;;
18435;SDS011;9346;52.006;4.720;2023-06-14T04:35:20;7.27;;;2.30;;
18435;SDS011;9346;52.006;4.720;2023-06-14T04:37:48;2.30;;;1.67;;
18435;SDS011;9346;52.006;4.720;2023-06-14T04:40:16;3.00;;;1.80;;
18435;SDS011;9346;52.006;4.720;2023-06-14T04:42:42;4.53;;;2.23;;
18435;SDS011;9346;52.006;4.720;2023-06-14T04:45:09;3.23;;;2.20;;
18435;SDS011;9346;52.006;4.720;2023-06-14T04:47:38;2.13;;;1.70;;
18435;SDS011;9346;52.006;4.720;2023-06-14T04:50:07;6.83;;;2.40;;
18435;SDS011;9346;52.006;4.720;2023-06-14T04:52:35;3.10;;;2.10;;
18435;SDS011;9346;52.006;4.720;2023-06-14T04:55:02;3.20;;;2.00;;
18435;SDS011;9346;52.006;4.720;2023-06-14T04:57:29;2.50;;;2.30;;
18435;SDS011;9346;52.006;4.720;2023-06-14T04:59:58;2.87;;;1.90;;
18435;SDS011;9346;52.006;4.720;2023-06-14T05:02:26;4.37;;;1.90;;
18435;SDS011;9346;52.006;4.720;2023-06-14T05:04:53;2.90;;;2.30;;
18435;SDS011;9346;52.006;4.720;2023-06-14T05:07:23;2.37;;;2.10;;
18435;SDS011;9346;52.006;4.720;2023-06-14T05:09:50;1.90;;;1.70;;
18435;SDS011;9346;52.006;4.720;2023-06-14T05:12:17;4.07;;;2.00;;
18435;SDS011;9346;52.006;4.720;2023-06-14T05:14:44;3.70;;;2.13;;
18435;SDS011;9346;52.006;4.720;2023-06-14T05:17:12;4.87;;;2.50;;
18435;SDS011;9346;52.006;4.720;2023-06-14T05:19:39;4.33;;;2.17;;
18435;SDS011;9346;52.006;4.720;2023-06-14T05:22:06;4.37;;;1.80;;
18435;SDS011;9346;52.006;4.720;2023-06-14T05:24:36;2.37;;;1.97;;
18435;SDS011;9346;52.006;4.720;2023-06-14T05:27:03;2.90;;;1.93;;
18435;SDS011;9346;52.006;4.720;2023-06-14T05:29:30;4.27;;;2.00;;
18435;SDS011;9346;52.006;4.720;2023-06-14T05:31:57;2.83;;;2.20;;
18435;SDS011;9346;52.006;4.720;2023-06-14T05:34:24;3.30;;;2.00;;
18435;SDS011;9346;52.006;4.720;2023-06-14T05:36:51;3.20;;;2.27;;
18435;SDS011;9346;52.006;4.720;2023-06-14T05:39:18;8.30;;;2.07;;
18435;SDS011;9346;52.006;4.720;2023-06-14T05:41:47;1.87;;;1.67;;
18435;SDS011;9346;52.006;4.720;2023-06-14T05:44:13;2.77;;;1.73;;
18435;SDS011;9346;52.006;4.720;2023-06-14T05:46:40;2.40;;;2.10;;
18435;SDS011;9346;52.006;4.720;2023-06-14T05:49:07;3.07;;;2.00;;
18435;SDS011;9346;52.006;4.720;2023-06-14T05:51:34;4.20;;;2.07;;
18435;SDS011;9346;52.006;4.720;2023-06-14T05:54:01;3.23;;;2.30;;
18435;SDS011;9346;52.006;4.720;2023-06-14T05:56:28;2.10;;;1.77;;
18435;SDS011;9346;52.006;4.720;2023-06-14T05:58:57;5.77;;;2.60;;
18435;SDS011;9346;52.006;4.720;2023-06-14T06:01:23;5.63;;;2.37;;
18435;SDS011;9346;52.006;4.720;2023-06-14T06:03:51;2.17;;;1.80;;
18435;SDS011;9346;52.006;4.720;2023-06-14T06:06:18;6.20;;;2.10;;
18435;SDS011;9346;52.006;4.720;2023-06-14T06:08:45;2.87;;;1.97;;
18435;SDS011;9346;52.006;4.720;2023-06-14T06:11:12;2.20;;;1.93;;
18435;SDS011;9346;52.006;4.720;2023-06-14T06:16:42;4.97;;;2.50;;
18435;SDS011;9346;52.006;4.720;2023-06-14T06:19:09;2.73;;;2.10;;
18435;SDS011;9346;52.006;4.720;2023-06-14T06:21:36;3.10;;;1.80;;
18435;SDS011;9346;52.006;4.720;2023-06-14T06:24:04;3.43;;;2.23;;
18435;SDS011;9346;52.006;4.720;2023-06-14T06:26:31;3.90;;;2.30;;
18435;SDS011;9346;52.006;4.720;2023-06-14T06:29:00;4.00;;;2.07;;
18435;SDS011;9346;52.006;4.720;2023-06-14T06:31:29;2.63;;;1.87;;
18435;SDS011;9346;52.006;4.720;2023-06-14T06:33:56;4.20;;;1.97;;
18435;SDS011;9346;52.006;4.720;2023-06-14T06:36:22;3.17;;;1.83;;
18435;SDS011;9346;52.006;4.720;2023-06-14T06:38:50;2.80;;;1.80;;
18435;SDS011;9346;52.006;4.720;2023-06-14T06:41:18;4.40;;;1.90;;
18435;SDS011;9346;52.006;4.720;2023-06-14T06:43:45;2.27;;;1.63;;
18435;SDS011;9346;52.006;4.720;2023-06-14T06:46:11;4.43;;;2.33;;
18435;SDS011;9346;52.006;4.720;2023-06-14T06:48:40;5.53;;;2.97;;
18435;SDS011;9346;52.006;4.720;2023-06-14T06:51:07;5.80;;;1.80;;
18435;SDS011;9346;52.006;4.720;2023-06-14T06:53:34;4.13;;;2.33;;
18435;SDS011;9346;52.006;4.720;2023-06-14T06:56:03;6.07;;;2.17;;
18435;SDS011;9346;52.006;4.720;2023-06-14T06:58:30;2.07;;;1.87;;
18435;SDS011;9346;52.006;4.720;2023-06-14T07:00:57;3.07;;;1.83;;
18435;SDS011;9346;52.006;4.720;2023-06-14T07:03:24;3.70;;;2.40;;
18435;SDS011;9346;52.006;4.720;2023-06-14T07:05:53;3.80;;;2.07;;
18435;SDS011;9346;52.006;4.720;2023-06-14T07:08:23;4.67;;;1.77;;
18435;SDS011;9346;52.006;4.720;2023-06-14T07:10:50;3.23;;;2.13;;
18435;SDS011;9346;52.006;4.720;2023-06-14T07:13:18;5.93;;;2.43;;
18435;SDS011;9346;52.006;4.720;2023-06-14T07:15:45;2.47;;;1.83;;
18435;SDS011;9346;52.006;4.720;2023-06-14T07:18:12;3.53;;;2.33;;
18435;SDS011;9346;52.006;4.720;2023-06-14T07:20:39;4.83;;;2.10;;
18435;SDS011;9346;52.006;4.720;2023-06-14T07:23:08;3.03;;;2.37;;
18435;SDS011;9346;52.006;4.720;2023-06-14T07:25:35;7.20;;;2.47;;
18435;SDS011;9346;52.006;4.720;2023-06-14T07:28:03;2.37;;;1.83;;
18435;SDS011;9346;52.006;4.720;2023-06-14T07:30:30;2.23;;;1.83;;
18435;SDS011;9346;52.006;4.720;2023-06-14T07:32:57;2.40;;;2.20;;
18435;SDS011;9346;52.006;4.720;2023-06-14T07:35:24;4.27;;;2.30;;
18435;SDS011;9346;52.006;4.720;2023-06-14T07:37:51;2.40;;;1.90;;
18435;SDS011;9346;52.006;4.720;2023-06-14T07:40:20;2.53;;;2.00;;
18435;SDS011;9346;52.006;4.720;2023-06-14T07:42:47;3.77;;;2.27;;
18435;SDS011;9346;52.006;4.720;2023-06-14T07:45:15;6.07;;;2.20;;
18435;SDS011;9346;52.006;4.720;2023-06-14T07:47:43;3.07;;;2.40;;
18435;SDS011;9346;52.006;4.720;2023-06-14T07:50:10;3.20;;;2.03;;
18435;SDS011;9346;52.006;4.720;2023-06-14T07:52:37;3.27;;;2.27;;
18435;SDS011;9346;52.006;4.720;2023-06-14T07:55:07;4.33;;;1.87;;
18435;SDS011;9346;52.006;4.720;2023-06-14T07:57:36;4.17;;;2.10;;
18435;SDS011;9346;52.006;4.720;2023-06-14T08:00:03;4.80;;;2.67;;
18435;SDS011;9346;52.006;4.720;2023-06-14T08:02:32;3.47;;;2.30;;
18435;SDS011;9346;52.006;4.720;2023-06-14T08:04:59;3.40;;;2.23;;
18435;SDS011;9346;52.006;4.720;2023-06-14T08:07:26;5.13;;;2.97;;
18435;SDS011;9346;52.006;4.720;2023-06-14T08:09:53;5.80;;;2.33;;
18435;SDS011;9346;52.006;4.720;2023-06-14T08:12:20;3.40;;;2.10;;
18435;SDS011;9346;52.006;4.720;2023-06-14T08:14:49;3.90;;;2.00;;
18435;SDS011;9346;52.006;4.720;2023-06-14T08:17:16;4.23;;;2.40;;
18435;SDS011;9346;52.006;4.720;2023-06-14T08:19:44;5.37;;;1.93;;
18435;SDS011;9346;52.006;4.720;2023-06-14T08:22:11;2.57;;;2.10;;
18435;SDS011;9346;52.006;4.720;2023-06-14T08:24:38;3.43;;;2.10;;
18435;SDS011;9346;52.006;4.720;2023-06-14T08:27:06;3.43;;;2.27;;
18435;SDS011;9346;52.006;4.720;2023-06-14T08:29:33;2.10;;;1.90;;
18435;SDS011;9346;52.006;4.720;2023-06-14T08:32:03;2.50;;;2.10;;
18435;SDS011;9346;52.006;4.720;2023-06-14T08:34:31;2.50;;;1.80;;
18435;SDS011;9346;52.006;4.720;2023-06-14T08:36:58;2.63;;;2.10;;
18435;SDS011;9346;52.006;4.720;2023-06-14T08:39:25;6.63;;;2.00;;
18435;SDS011;9346;52.006;4.720;2023-06-14T08:41:52;2.17;;;1.73;;
18435;SDS011;9346;52.006;4.720;2023-06-14T08:44:21;4.13;;;2.40;;
18435;SDS011;9346;52.006;4.720;2023-06-14T08:46:48;2.07;;;1.60;;
18435;SDS011;9346;52.006;4.720;2023-06-14T08:49:20;2.60;;;1.97;;
18435;SDS011;9346;52.006;4.720;2023-06-14T08:51:48;3.93;;;2.10;;
18435;SDS011;9346;52.006;4.720;2023-06-14T08:54:19;2.67;;;2.00;;
18435;SDS011;9346;52.006;4.720;2023-06-14T08:56:47;8.43;;;2.03;;
18435;SDS011;9346;52.006;4.720;2023-06-14T08:59:16;2.30;;;1.70;;
18435;SDS011;9346;52.006;4.720;2023-06-14T09:01:46;4.93;;;1.90;;
18435;SDS011;9346;52.006;4.720;2023-06-14T09:04:13;1.67;;;1.57;;
18435;SDS011;9346;52.006;4.720;2023-06-14T09:06:43;2.20;;;1.70;;
18435;SDS011;9346;52.006;4.720;2023-06-14T09:09:10;2.33;;;1.80;;
18435;SDS011;9346;52.006;4.720;2023-06-14T09:11:41;1.97;;;1.60;;
18435;SDS011;9346;52.006;4.720;2023-06-14T09:14:09;3.20;;;1.50;;
18435;SDS011;9346;52.006;4.720;2023-06-14T09:16:40;3.03;;;1.60;;
18435;SDS011;9346;52.006;4.720;2023-06-14T09:19:07;2.70;;;1.73;;
18435;SDS011;9346;52.006;4.720;2023-06-14T09:21:35;4.40;;;1.80;;
18435;SDS011;9346;52.006;4.720;2023-06-14T09:24:04;1.60;;;1.47;;
18435;SDS011;9346;52.006;4.720;2023-06-14T09:26:32;3.37;;;1.60;;
18435;SDS011;9346;52.006;4.720;2023-06-14T09:28:59;4.27;;;1.87;;
18435;SDS011;9346;52.006;4.720;2023-06-14T09:31:26;1.77;;;1.40;;
18435;SDS011;9346;52.006;4.720;2023-06-14T09:33:56;5.13;;;1.83;;
18435;SDS011;9346;52.006;4.720;2023-06-14T09:36:24;3.10;;;1.83;;
18435;SDS011;9346;52.006;4.720;2023-06-14T09:38:52;1.73;;;1.23;;
18435;SDS011;9346;52.006;4.720;2023-06-14T09:41:21;2.37;;;1.90;;
18435;SDS011;9346;52.006;4.720;2023-06-14T09:43:57;2.17;;;1.50;;
18435;SDS011;9346;52.006;4.720;2023-06-14T09:46:26;3.23;;;1.33;;
18435;SDS011;9346;52.006;4.720;2023-06-14T09:48:53;2.10;;;1.63;;
18435;SDS011;9346;52.006;4.720;2023-06-14T09:51:20;2.53;;;1.33;;
18435;SDS011;9346;52.006;4.720;2023-06-14T09:53:49;2.13;;;1.33;;
18435;SDS011;9346;52.006;4.720;2023-06-14T09:56:18;1.40;;;1.23;;
18435;SDS011;9346;52.006;4.720;2023-06-14T09:58:54;1.80;;;1.30;;
18435;SDS011;9346;52.006;4.720;2023-06-14T10:01:22;2.43;;;1.30;;
18435;SDS011;9346;52.006;4.720;2023-06-14T10:03:53;2.47;;;1.30;;
18435;SDS011;9346;52.006;4.720;2023-06-14T10:06:23;2.43;;;1.60;;
18435;SDS011;9346;52.006;4.720;2023-06-14T10:08:52;1.90;;;1.50;;
18435;SDS011;9346;52.006;4.720;2023-06-14T10:11:22;1.80;;;1.30;;
18435;SDS011;9346;52.006;4.720;2023-06-14T10:13:49;6.83;;;1.60;;
18435;SDS011;9346;52.006;4.720;2023-06-14T10:16:17;4.60;;;1.97;;
18435;SDS011;9346;52.006;4.720;2023-06-14T10:18:51;2.90;;;1.30;;
18435;SDS011;9346;52.006;4.720;2023-06-14T10:21:32;2.53;;;1.13;;
18435;SDS011;9346;52.006;4.720;2023-06-14T10:24:18;2.20;;;1.40;;
18435;SDS011;9346;52.006;4.720;2023-06-14T10:26:53;3.00;;;1.17;;
18435;SDS011;9346;52.006;4.720;2023-06-14T10:29:20;2.40;;;1.43;;
18435;SDS011;9346;52.006;4.720;2023-06-14T10:31:48;4.23;;;1.80;;
18435;SDS011;9346;52.006;4.720;2023-06-14T10:34:23;2.17;;;1.40;;
18435;SDS011;9346;52.006;4.720;2023-06-14T10:37:01;2.77;;;1.37;;
18435;SDS011;9346;52.006;4.720;2023-06-14T10:39:31;2.60;;;1.40;;
18435;SDS011;9346;52.006;4.720;2023-06-14T10:42:01;1.23;;;1.03;;
18435;SDS011;9346;52.006;4.720;2023-06-14T10:44:33;1.83;;;1.33;;
18435;SDS011;9346;52.006;4.720;2023-06-14T10:47:13;1.33;;;1.23;;
18435;SDS011;9346;52.006;4.720;2023-06-14T10:49:49;2.00;;;0.83;;
18435;SDS011;9346;52.006;4.720;2023-06-14T10:52:20;1.13;;;1.00;;
18435;SDS011;9346;52.006;4.720;2023-06-14T10:54:56;1.90;;;1.37;;
18435;SDS011;9346;52.006;4.720;2023-06-14T10:57:28;1.83;;;1.33;;
18435;SDS011;9346;52.006;4.720;2023-06-14T10:59:56;1.27;;;1.00;;
18435;SDS011;9346;52.006;4.720;2023-06-14T11:02:36;1.10;;;1.00;;
18435;SDS011;9346;52.006;4.720;2023-06-14T11:05:17;2.07;;;1.50;;
18435;SDS011;9346;52.006;4.720;2023-06-14T11:07:55;2.30;;;1.33;;
18435;SDS011;9346;52.006;4.720;2023-06-14T11:10:34;3.03;;;1.27;;
18435;SDS011;9346;52.006;4.720;2023-06-14T11:13:05;3.80;;;1.50;;
18435;SDS011;9346;52.006;4.720;2023-06-14T11:15:33;4.00;;;2.07;;
18435;SDS011;9346;52.006;4.720;2023-06-14T11:18:01;1.93;;;1.20;;
18435;SDS011;9346;52.006;4.720;2023-06-14T11:20:30;1.37;;;1.20;;
18435;SDS011;9346;52.006;4.720;2023-06-14T11:22:57;0.90;;;0.90;;
18435;SDS011;9346;52.006;4.720;2023-06-14T11:25:26;1.97;;;1.20;;
18435;SDS011;9346;52.006;4.720;2023-06-14T11:27:54;1.33;;;1.13;;
18435;SDS011;9346;52.006;4.720;2023-06-14T11:30:23;1.03;;;0.90;;
18435;SDS011;9346;52.006;4.720;2023-06-14T11:32:52;1.27;;;1.10;;
18435;SDS011;9346;52.006;4.720;2023-06-14T11:35:23;1.80;;;1.40;;
18435;SDS011;9346;52.006;4.720;2023-06-14T11:37:52;1.27;;;1.17;;
18435;SDS011;9346;52.006;4.720;2023-06-14T11:40:24;1.97;;;1.10;;
18435;SDS011;9346;52.006;4.720;2023-06-14T11:42:57;1.40;;;1.00;;
18435;SDS011;9346;52.006;4.720;2023-06-14T11:45:28;1.33;;;1.10;;
18435;SDS011;9346;52.006;4.720;2023-06-14T11:47:56;2.00;;;1.10;;
18435;SDS011;9346;52.006;4.720;2023-06-14T11:50:23;3.27;;;1.30;;
18435;SDS011;9346;52.006;4.720;2023-06-14T11:52:54;1.00;;;0.90;;
18435;SDS011;9346;52.006;4.720;2023-06-14T11:55:21;2.40;;;0.90;;
18435;SDS011;9346;52.006;4.720;2023-06-14T11:57:52;1.37;;;1.07;;
18435;SDS011;9346;52.006;4.720;2023-06-14T12:00:23;1.23;;;1.10;;
18435;SDS011;9346;52.006;4.720;2023-06-14T12:02:54;1.30;;;0.80;;
18435;SDS011;9346;52.006;4.720;2023-06-14T12:05:21;1.00;;;0.83;;
18435;SDS011;9346;52.006;4.720;2023-06-14T12:07:49;0.80;;;0.80;;
18435;SDS011;9346;52.006;4.720;2023-06-14T12:10:18;0.80;;;0.80;;
18435;SDS011;9346;52.006;4.720;2023-06-14T12:12:45;2.63;;;1.10;;
18435;SDS011;9346;52.006;4.720;2023-06-14T12:15:12;1.20;;;0.82;;
18435;SDS011;9346;52.006;4.720;2023-06-14T12:17:39;1.87;;;1.30;;
18435;SDS011;9346;52.006;4.720;2023-06-14T12:20:11;1.73;;;1.20;;
18435;SDS011;9346;52.006;4.720;2023-06-14T12:22:46;1.10;;;0.80;;
18435;SDS011;9346;52.006;4.720;2023-06-14T12:25:23;1.75;;;1.02;;
18435;SDS011;9346;52.006;4.720;2023-06-14T12:27:54;3.13;;;1.30;;
18435;SDS011;9346;52.006;4.720;2023-06-14T12:30:23;1.95;;;0.90;;
18435;SDS011;9346;52.006;4.720;2023-06-14T12:32:50;1.15;;;0.95;;
18435;SDS011;9346;52.006;4.720;2023-06-14T12:35:19;1.23;;;1.10;;
18435;SDS011;9346;52.006;4.720;2023-06-14T12:37:46;1.27;;;1.10;;
18435;SDS011;9346;52.006;4.720;2023-06-14T12:40:14;2.50;;;0.90;;
18435;SDS011;9346;52.006;4.720;2023-06-14T12:42:41;1.88;;;1.02;;
18435;SDS011;9346;52.006;4.720;2023-06-14T12:45:08;4.22;;;1.00;;
18435;SDS011;9346;52.006;4.720;2023-06-14T12:47:40;3.30;;;1.20;;
18435;SDS011;9346;52.006;4.720;2023-06-14T12:50:08;1.13;;;1.02;;
18435;SDS011;9346;52.006;4.720;2023-06-14T12:52:37;4.40;;;1.20;;
18435;SDS011;9346;52.006;4.720;2023-06-14T12:55:04;1.52;;;1.02;;
18435;SDS011;9346;52.006;4.720;2023-06-14T12:57:31;4.07;;;1.00;;
18435;SDS011;9346;52.006;4.720;2023-06-14T13:00:07;0.90;;;0.80;;
18435;SDS011;9346;52.006;4.720;2023-06-14T13:02:36;3.53;;;1.17;;
18435;SDS011;9346;52.006;4.720;2023-06-14T13:05:03;1.10;;;0.85;;
18435;SDS011;9346;52.006;4.720;2023-06-14T13:07:32;1.23;;;1.10;;
18435;SDS011;9346;52.006;4.720;2023-06-14T13:10:01;2.22;;;1.30;;
18435;SDS011;9346;52.006;4.720;2023-06-14T13:12:29;1.20;;;0.90;;
18435;SDS011;9346;52.006;4.720;2023-06-14T13:15:13;1.45;;;1.05;;
18435;SDS011;9346;52.006;4.720;2023-06-14T13:17:47;1.30;;;0.93;;
18435;SDS011;9346;52.006;4.720;2023-06-14T13:20:14;1.38;;;1.10;;
18435;SDS011;9346;52.006;4.720;2023-06-14T13:22:42;3.60;;;1.25;;
18435;SDS011;9346;52.006;4.720;2023-06-14T13:25:11;3.25;;;1.40;;
18435;SDS011;9346;52.006;4.720;2023-06-14T13:27:39;1.10;;;1.00;;
18435;SDS011;9346;52.006;4.720;2023-06-14T13:30:11;1.63;;;1.17;;
18435;SDS011;9346;52.006;4.720;2023-06-14T13:32:39;1.10;;;1.00;;
18435;SDS011;9346;52.006;4.720;2023-06-14T13:35:06;1.30;;;1.20;;
18435;SDS011;9346;52.006;4.720;2023-06-14T13:37:33;2.17;;;1.23;;
18435;SDS011;9346;52.006;4.720;2023-06-14T13:40:01;1.42;;;1.20;;
18435;SDS011;9346;52.006;4.720;2023-06-14T13:42:31;1.02;;;0.93;;
18435;SDS011;9346;52.006;4.720;2023-06-14T13:44:58;1.58;;;1.00;;
18435;SDS011;9346;52.006;4.720;2023-06-14T13:47:25;1.00;;;0.88;;
18435;SDS011;9346;52.006;4.720;2023-06-14T13:49:52;1.90;;;1.10;;
18435;SDS011;9346;52.006;4.720;2023-06-14T13:52:19;2.35;;;1.20;;
18435;SDS011;9346;52.006;4.720;2023-06-14T13:54:47;1.90;;;1.30;;
18435;SDS011;9346;52.006;4.720;2023-06-14T13:57:13;1.30;;;1.20;;
18435;SDS011;9346;52.006;4.720;2023-06-14T13:59:42;1.63;;;0.90;;
18435;SDS011;9346;52.006;4.720;2023-06-14T14:02:10;1.73;;;1.20;;
18435;SDS011;9346;52.006;4.720;2023-06-14T14:04:37;1.35;;;1.10;;
18435;SDS011;9346;52.006;4.720;2023-06-14T14:07:06;1.08;;;0.98;;
18435;SDS011;9346;52.006;4.720;2023-06-14T14:09:33;1.48;;;1.13;;
18435;SDS011;9346;52.006;4.720;2023-06-14T14:12:02;1.45;;;1.00;;
18435;SDS011;9346;52.006;4.720;2023-06-14T14:14:31;1.20;;;1.10;;
18435;SDS011;9346;52.006;4.720;2023-06-14T14:17:00;1.65;;;1.20;;
18435;SDS011;9346;52.006;4.720;2023-06-14T14:19:27;1.00;;;0.95;;
18435;SDS011;9346;52.006;4.720;2023-06-14T14:21:54;1.80;;;1.20;;
18435;SDS011;9346;52.006;4.720;2023-06-14T14:24:21;4.07;;;1.10;;
18435;SDS011;9346;52.006;4.720;2023-06-14T14:26:47;1.00;;;0.90;;
18435;SDS011;9346;52.006;4.720;2023-06-14T14:29:15;3.92;;;1.00;;
18435;SDS011;9346;52.006;4.720;2023-06-14T14:31:43;1.20;;;1.10;;
18435;SDS011;9346;52.006;4.720;2023-06-14T14:34:11;1.10;;;1.00;;
18435;SDS011;9346;52.006;4.720;2023-06-14T14:36:38;1.45;;;1.00;;
18435;SDS011;9346;52.006;4.720;2023-06-14T14:39:07;1.08;;;0.90;;
18435;SDS011;9346;52.006;4.720;2023-06-14T14:41:34;2.63;;;0.98;;
18435;SDS011;9346;52.006;4.720;2023-06-14T14:44:05;2.33;;;1.17;;
18435;SDS011;9346;52.006;4.720;2023-06-14T14:46:33;1.42;;;1.33;;
18435;SDS011;9346;52.006;4.720;2023-06-14T14:49:00;1.70;;;1.20;;
18435;SDS011;9346;52.006;4.720;2023-06-14T14:51:30;1.83;;;1.13;;
18435;SDS011;9346;52.006;4.720;2023-06-14T14:53:56;1.13;;;0.98;;
18435;SDS011;9346;52.006;4.720;2023-06-14T14:56:23;0.93;;;0.80;;
18435;SDS011;9346;52.006;4.720;2023-06-14T14:58:50;0.93;;;0.85;;
18435;SDS011;9346;52.006;4.720;2023-06-14T15:01:18;1.90;;;1.15;;
18435;SDS011;9346;52.006;4.720;2023-06-14T15:03:45;2.60;;;1.00;;
18435;SDS011;9346;52.006;4.720;2023-06-14T15:06:12;0.95;;;0.80;;
18435;SDS011;9346;52.006;4.720;2023-06-14T15:08:41;3.40;;;0.93;;
18435;SDS011;9346;52.006;4.720;2023-06-14T15:11:08;12.95;;;1.38;;
18435;SDS011;9346;52.006;4.720;2023-06-14T15:13:35;1.20;;;0.95;;